Condicions actuals
Majoritàriament Clar



Pressió
1006.92 (hPa) - 29.73 (inHG)
Visibilitat:

10.0 (km) - 6.2 (miles)
Base de Núvols

Clar (Mts) - Clar (Feets)
   Temperatura
21  °C
Temperatura
15  °C
P.ros.
69  %
 Humitat
   Velocitat del Vent
2  km/h
1  kts
1  mph
0.4  m/s
   Vent Direcció
N
45°
E
90°
135°
S
180°
225°
O
270°
315°
 310°

Nord Oest
   Airport Data
LEBL
Josep Tarradellas Barcelona-El Prat Airport
Metar :LEBL 230130Z 31001KT CAVOK 21/15 Q1007 NOSIG
Mon 23rd May 03:30 am
   Raw Metar Info
Raw METAR is the most common format in the world for the transmission of observational weather data. It is highly standardized through the International Civil Aviation Organization (ICAO), which allows it to be understood throughout most of the world.
   API Info
Data Provided by
https://www.checkwx.com/weather/LEBL

Aviation Weather providing METAR, TAF, AIRMET, SIGMET and OUTLOOK Weather Reports
   © Info
CSS/SVG/PHP scripts were developed by weather34.com for use in the weather34 template © 2015-2022

Guide Info provided by Metar-Wikipedia